Time;durP1;ratioP1;P1;durP2;ratioP2;P2;SDS_P1;SDS_P2;PMS_P1;PMS_P2;Temp;Humidity;BMP_temperature;BMP_pressure;BME280_temperature;BME280_humidity;BME280_pressure;Samples;Min_cycle;Max_cycle;Signal;HPM_P1;HPM_P2
2021/10/09 00:02:15;;;;;;;30.35;16.50;;;;;;;4.66;73.30;101927.41;5024515;28;20021;-59
2021/10/09 00:05:02;;;;;;;37.08;16.45;;;;;;;4.68;73.77;101927.44;5023844;28;20049;-59
2021/10/09 00:07:48;;;;;;;26.85;16.30;;;;;;;4.59;74.12;101927.94;5024408;28;20041;-58
2021/10/09 00:10:34;;;;;;;27.73;15.02;;;;;;;4.63;73.34;101927.25;5026044;28;20026;-59
2021/10/09 00:13:20;;;;;;;27.20;15.52;;;;;;;4.66;73.98;101927.41;5024341;28;20093;-59
2021/10/09 00:16:06;;;;;;;27.75;16.38;;;;;;;4.53;73.68;101926.00;5025569;28;20026;-59
2021/10/09 00:18:52;;;;;;;27.33;15.15;;;;;;;4.56;73.70;101921.03;5021923;28;20028;-59
2021/10/09 00:21:43;;;;;;;34.03;16.00;;;;;;;4.53;73.73;101920.00;5024997;28;20033;-59
2021/10/09 00:24:29;;;;;;;24.10;15.13;;;;;;;4.52;74.38;101915.69;5022897;28;20365;-58
2021/10/09 00:27:15;;;;;;;24.55;15.98;;;;;;;4.46;74.38;101914.63;5023542;28;20060;-59
2021/10/09 00:30:03;;;;;;;28.10;15.57;;;;;;;4.45;73.69;101914.59;5020289;28;20026;-59
2021/10/09 00:32:49;;;;;;;28.02;16.27;;;;;;;4.46;73.93;101911.19;5020846;28;20025;-59
2021/10/09 00:35:35;;;;;;;30.00;16.45;;;;;;;4.41;73.67;101912.72;5019337;28;20036;-59
2021/10/09 00:38:21;;;;;;;27.67;16.33;;;;;;;4.32;73.95;101906.38;5024025;28;20038;-59
2021/10/09 00:41:07;;;;;;;25.85;15.70;;;;;;;4.31;74.25;101903.75;5023534;28;20327;-60
2021/10/09 00:43:53;;;;;;;28.45;15.77;;;;;;;4.34;74.70;101903.00;5024308;28;20026;-60
2021/10/09 00:46:40;;;;;;;28.77;15.68;;;;;;;4.35;74.52;101897.94;5022703;28;20021;-60
2021/10/09 00:49:26;;;;;;;25.42;14.73;;;;;;;4.38;74.14;101899.75;5022394;28;20026;-60
2021/10/09 00:52:13;;;;;;;23.58;15.40;;;;;;;4.34;73.74;101888.50;5016129;28;20219;-59
2021/10/09 00:55:01;;;;;;;26.15;15.57;;;;;;;4.36;73.83;101891.13;5021975;28;20034;-59
2021/10/09 00:57:49;;;;;;;28.25;15.93;;;;;;;4.36;74.52;101892.00;5023729;28;20270;-61
2021/10/09 01:00:36;;;;;;;22.45;14.93;;;;;;;4.26;74.74;101893.31;5022900;28;20037;-60
2021/10/09 01:03:22;;;;;;;24.85;15.10;;;;;;;4.29;74.28;101898.56;5007432;28;20021;-60
2021/10/09 01:06:08;;;;;;;22.50;14.25;;;;;;;4.26;74.37;101895.00;5008331;28;20064;-60
2021/10/09 01:08:54;;;;;;;31.77;15.07;;;;;;;4.15;74.53;101892.00;5023945;28;20037;-60
2021/10/09 01:11:40;;;;;;;25.77;15.82;;;;;;;4.19;74.86;101901.59;5023419;28;20037;-59
2021/10/09 01:14:26;;;;;;;24.48;15.13;;;;;;;4.14;75.48;101901.38;5022973;28;20029;-59
2021/10/09 01:17:13;;;;;;;24.15;15.85;;;;;;;3.87;73.99;101841.28;5023014;28;20260;-59
2021/10/09 01:19:59;;;;;;;30.52;16.02;;;;;;;4.14;74.22;101897.94;5023609;28;20022;-59
2021/10/09 01:22:47;;;;;;;24.60;15.05;;;;;;;4.11;75.09;101890.13;5047561;28;20026;-59
2021/10/09 01:25:32;;;;;;;30.17;15.75;;;;;;;4.05;74.29;101895.03;5025196;28;20085;-59
2021/10/09 01:28:18;;;;;;;23.08;14.68;;;;;;;4.06;74.88;101883.94;5023067;28;20391;-59
2021/10/09 01:31:05;;;;;;;24.38;14.77;;;;;;;4.01;74.63;101891.44;5023968;28;20018;-59
2021/10/09 01:33:51;;;;;;;25.85;15.20;;;;;;;3.95;75.02;101892.06;5024339;28;20026;-59
2021/10/09 01:36:40;;;;;;;30.25;15.48;;;;;;;3.89;74.84;101914.88;5025583;28;20032;-59
2021/10/09 01:39:26;;;;;;;25.83;14.80;;;;;;;3.90;74.84;101874.75;5023174;28;20064;-58
2021/10/09 01:42:12;;;;;;;27.17;14.95;;;;;;;4.04;74.78;101878.75;5022361;28;20057;-59
2021/10/09 01:44:58;;;;;;;24.92;15.10;;;;;;;3.98;75.10;101887.06;5023734;28;20026;-59
2021/10/09 01:47:44;;;;;;;23.50;14.85;;;;;;;3.95;75.07;101888.63;5022900;28;20034;-59
2021/10/09 01:50:29;;;;;;;23.65;14.10;;;;;;;3.95;74.34;101886.94;5023100;28;20056;-59
2021/10/09 01:53:15;;;;;;;21.48;14.30;;;;;;;3.91;74.31;101881.63;5021828;28;20250;-59
2021/10/09 01:56:02;;;;;;;25.50;14.60;;;;;;;3.87;74.99;101878.03;5023274;28;20038;-60
2021/10/09 01:58:48;;;;;;;23.40;14.23;;;;;;;3.87;74.47;101884.88;5022582;28;20068;-59
2021/10/09 02:01:34;;;;;;;21.15;14.07;;;;;;;3.83;74.84;101888.09;5024699;28;20056;-59
2021/10/09 02:04:24;;;;;;;24.13;15.25;;;;;;;3.85;74.64;101883.91;5022475;28;20030;-59
2021/10/09 02:07:15;;;;;;;23.70;14.20;;;;;;;3.82;74.76;101878.66;5023130;28;20030;-58
2021/10/09 02:10:02;;;;;;;26.87;14.83;;;;;;;3.85;74.88;101878.78;5022784;28;20030;-57
2021/10/09 02:12:49;;;;;;;18.88;13.93;;;;;;;3.85;74.46;101871.09;5023291;28;20307;-58
2021/10/09 02:15:43;;;;;;;22.08;15.05;;;;;;;3.80;74.53;101863.22;5021865;28;20030;-58
2021/10/09 02:24:56;;;;;;;27.75;15.00;;;;;;;3.72;75.17;101865.47;5008732;28;20033;-58
2021/10/09 02:27:41;;;;;;;25.13;14.13;;;;;;;3.73;75.16;101861.22;5026235;28;20040;-58
2021/10/09 02:30:27;;;;;;;22.38;14.18;;;;;;;3.76;74.65;101866.47;5035477;28;20029;-58
2021/10/09 02:33:14;;;;;;;25.92;16.10;;;;;;;3.65;74.91;101866.03;5022660;28;20319;-58
2021/10/09 02:36:00;;;;;;;27.45;15.70;;;;;;;3.63;74.69;101860.84;5022566;28;20033;-58
2021/10/09 02:38:46;;;;;;;22.95;13.77;;;;;;;3.51;74.97;101849.22;5022163;28;20053;-58
2021/10/09 02:41:32;;;;;;;28.42;15.52;;;;;;;3.59;75.16;101853.84;5022001;28;20022;-60
2021/10/09 02:44:18;;;;;;;34.10;16.33;;;;;;;3.60;74.61;101855.56;5023237;28;20096;-59
2021/10/09 02:47:04;;;;;;;23.75;14.93;;;;;;;3.61;74.70;101852.19;5023253;28;20057;-59
2021/10/09 02:49:50;;;;;;;25.70;14.52;;;;;;;3.62;75.10;101851.41;5023604;28;20032;-59
2021/10/09 02:52:36;;;;;;;28.05;15.13;;;;;;;3.08;75.14;101771.41;5021077;28;20029;-58
2021/10/09 02:55:22;;;;;;;23.88;15.00;;;;;;;3.45;75.34;101831.88;5021203;28;20033;-58
2021/10/09 02:58:09;;;;;;;25.50;15.35;;;;;;;3.50;75.07;101838.06;5037407;28;20060;-58
2021/10/09 03:00:55;;;;;;;25.60;15.93;;;;;;;3.58;74.83;101836.72;5020612;28;20026;-59
2021/10/09 03:03:41;;;;;;;27.20;16.90;;;;;;;3.51;75.20;101842.38;5025986;28;20128;-59
2021/10/09 03:06:27;;;;;;;23.85;15.27;;;;;;;3.56;74.70;101838.34;5026260;28;20088;-59
2021/10/09 03:09:12;;;;;;;25.42;15.52;;;;;;;3.55;74.64;101844.28;5026418;28;20053;-58
2021/10/09 03:11:58;;;;;;;26.77;14.57;;;;;;;3.50;75.16;101838.06;5038821;28;20306;-59
2021/10/09 03:14:44;;;;;;;21.15;14.80;;;;;;;3.51;75.28;101829.56;5042385;28;20049;-58
2021/10/09 03:17:30;;;;;;;27.13;15.93;;;;;;;3.55;74.84;101833.13;5025266;28;20026;-58
2021/10/09 03:20:16;;;;;;;23.33;16.17;;;;;;;3.47;75.15;101835.38;5026230;28;20026;-59
2021/10/09 03:23:02;;;;;;;28.50;16.30;;;;;;;3.44;75.12;101843.81;5024692;28;20129;-58
2021/10/09 03:25:48;;;;;;;25.35;15.43;;;;;;;3.35;75.06;101824.59;5025623;28;20033;-58
2021/10/09 03:28:34;;;;;;;25.40;15.80;;;;;;;3.40;74.93;101831.66;5026328;28;20029;-59
2021/10/09 03:31:20;;;;;;;27.85;17.33;;;;;;;3.35;75.66;101835.75;5039661;28;20034;-59
2021/10/09 03:34:05;;;;;;;31.23;18.02;;;;;;;3.36;75.58;101831.47;5023574;28;20029;-59
2021/10/09 03:36:51;;;;;;;25.77;15.27;;;;;;;3.43;75.28;101842.06;5024020;28;20030;-59
2021/10/09 03:39:40;;;;;;;28.00;16.55;;;;;;;3.31;74.99;101836.41;5022746;28;20044;-60
2021/10/09 03:42:35;;;;;;;28.02;16.17;;;;;;;3.27;75.69;101837.94;5024890;28;20054;-59
2021/10/09 03:53:54;;;;;;;27.60;16.00;;;;;;;3.35;75.76;101852.75;5011725;28;20033;-59
2021/10/09 03:56:40;;;;;;;26.98;16.77;;;;;;;3.28;75.24;101852.50;5024998;28;20072;-59
2021/10/09 03:59:25;;;;;;;27.85;15.90;;;;;;;3.25;75.78;101843.81;5026019;28;20322;-58
2021/10/09 04:02:11;;;;;;;28.25;16.70;;;;;;;3.31;75.42;101838.97;5024498;28;20422;-59
2021/10/09 04:04:57;;;;;;;30.13;18.45;;;;;;;3.41;75.88;101847.94;5024114;28;20349;-59
2021/10/09 04:07:43;;;;;;;27.25;17.25;;;;;;;3.31;75.56;101841.53;5047839;28;20036;-59
2021/10/09 04:10:29;;;;;;;25.35;16.33;;;;;;;3.37;75.50;101836.66;5024440;28;20068;-58
2021/10/09 04:13:15;;;;;;;29.98;17.17;;;;;;;3.36;76.02;101847.72;5026471;28;20349;-58
2021/10/09 04:16:01;;;;;;;29.15;17.27;;;;;;;3.40;75.71;101835.94;5024845;28;20072;-58
2021/10/09 04:18:46;;;;;;;25.20;17.30;;;;;;;3.35;75.76;101837.41;5017388;28;20338;-58
2021/10/09 04:21:32;;;;;;;27.90;16.25;;;;;;;3.39;75.57;101831.59;5025628;28;20101;-59
2021/10/09 04:24:19;;;;;;;28.67;17.23;;;;;;;3.44;75.43;101837.81;5023972;28;20065;-58
2021/10/09 04:27:05;;;;;;;36.28;17.75;;;;;;;3.38;75.55;101835.88;5032351;28;20124;-58
2021/10/09 04:29:51;;;;;;;30.75;17.70;;;;;;;3.40;76.01;101823.13;5030628;28;20092;-58
2021/10/09 04:32:37;;;;;;;31.20;17.25;;;;;;;3.36;76.20;101849.41;5024023;28;20034;-58
2021/10/09 04:35:23;;;;;;;29.60;17.92;;;;;;;3.44;76.09;101828.44;5034443;28;20073;-58
2021/10/09 04:38:10;;;;;;;24.67;16.40;;;;;;;3.48;76.11;101837.13;5029141;28;20026;-59
2021/10/09 04:40:56;;;;;;;34.80;17.65;;;;;;;3.43;75.50;101819.03;5024132;28;20033;-58
2021/10/09 04:43:42;;;;;;;28.08;16.88;;;;;;;3.47;76.23;101837.94;5023282;28;20049;-59
2021/10/09 04:46:28;;;;;;;30.70;16.15;;;;;;;3.53;76.32;101837.31;5024599;28;20034;-59
2021/10/09 04:49:13;;;;;;;31.13;16.77;;;;;;;3.59;76.66;101838.47;5018950;28;20104;-59
2021/10/09 04:51:59;;;;;;;32.78;16.77;;;;;;;3.64;75.84;101843.78;5021287;28;20081;-60
2021/10/09 04:54:45;;;;;;;27.90;17.50;;;;;;;3.68;76.19;101845.66;5021213;28;20445;-61
2021/10/09 04:57:31;;;;;;;27.13;17.17;;;;;;;3.76;76.05;101844.31;5020986;28;20018;-59
2021/10/09 05:00:17;;;;;;;35.30;17.90;;;;;;;3.82;75.59;101842.78;5021124;28;20041;-59
2021/10/09 05:03:03;;;;;;;31.33;18.50;;;;;;;3.87;75.56;101849.84;5021927;28;20308;-59
2021/10/09 05:05:49;;;;;;;39.95;17.90;;;;;;;3.93;75.91;101850.13;5033095;28;20196;-60
2021/10/09 05:08:34;;;;;;;29.00;16.58;;;;;;;3.98;76.61;101843.47;5020386;28;20153;-61
2021/10/09 05:11:20;;;;;;;57.45;20.08;;;;;;;4.06;76.01;101842.91;5020319;28;20021;-61
2021/10/09 05:14:06;;;;;;;60.40;20.17;;;;;;;4.12;75.16;101848.31;5020095;28;20076;-59
2021/10/09 05:16:52;;;;;;;52.03;20.70;;;;;;;4.18;75.21;101843.41;5018857;28;20132;-59
2021/10/09 05:19:38;;;;;;;44.92;18.98;;;;;;;4.19;75.55;101829.78;5018965;28;20076;-59
2021/10/09 05:22:24;;;;;;;39.15;19.70;;;;;;;4.35;74.97;101845.75;5020243;28;20100;-58
2021/10/09 05:25:10;;;;;;;40.42;19.23;;;;;;;4.37;75.51;101833.88;5020718;28;20053;-59
2021/10/09 05:28:04;;;;;;;35.47;18.13;;;;;;;4.56;75.23;101845.72;5039728;28;20093;-58
2021/10/09 05:30:50;;;;;;;38.58;19.17;;;;;;;4.64;74.59;101840.03;5020942;28;20029;-59
2021/10/09 05:33:37;;;;;;;35.08;18.10;;;;;;;4.74;74.87;101836.13;5022355;28;20022;-59
2021/10/09 05:36:23;;;;;;;35.08;17.42;;;;;;;4.84;74.06;101830.56;5023187;28;20033;-58
2021/10/09 05:39:09;;;;;;;30.88;16.83;;;;;;;4.96;73.96;101835.25;5022570;28;20097;-59
2021/10/09 05:41:55;;;;;;;32.08;17.42;;;;;;;5.09;72.83;101834.00;5020773;28;20101;-59
2021/10/09 05:44:41;;;;;;;34.30;16.63;;;;;;;5.22;72.75;101835.31;5020112;28;20098;-59
2021/10/09 05:47:30;;;;;;;30.52;15.52;;;;;;;5.35;71.50;101832.34;5020006;28;20200;-59
2021/10/09 05:50:18;;;;;;;25.85;15.85;;;;;;;5.44;70.61;101830.94;5019807;28;20022;-60
2021/10/09 05:56:11;;;;;;;24.25;14.63;;;;;;;5.73;70.13;101825.88;5022916;28;20047;-60
2021/10/09 06:37:21;;;;;;;22.40;13.70;;;;;;;8.60;60.93;101807.97;5034889;28;20116;-59
2021/10/09 06:59:37;;;;;;;24.02;11.20;;;;;;;10.42;55.64;101811.16;5023968;28;20045;-60
2021/10/09 07:02:23;;;;;;;22.70;12.05;;;;;;;10.34;55.52;101808.44;5010502;28;20042;-63
2021/10/09 07:05:10;;;;;;;18.02;11.40;;;;;;;10.37;55.18;101817.97;5026423;28;20030;-62
2021/10/09 07:08:02;;;;;;;14.77;9.98;;;;;;;10.40;54.28;101812.84;5023568;28;20327;-61
2021/10/09 07:10:50;;;;;;;20.23;10.70;;;;;;;10.37;53.40;101802.44;5015046;28;20034;-62
2021/10/09 07:13:36;;;;;;;21.38;13.40;;;;;;;10.43;53.45;101806.81;5026398;28;20049;-62
2021/10/09 07:16:22;;;;;;;25.20;14.50;;;;;;;10.62;52.89;101806.22;5026329;28;20278;-62
2021/10/09 07:19:08;;;;;;;28.50;16.52;;;;;;;10.75;51.60;101808.97;5025168;28;20021;-63
2021/10/09 07:21:54;;;;;;;28.33;16.45;;;;;;;10.78;50.93;101809.00;5024380;28;20029;-63
2021/10/09 07:24:40;;;;;;;27.70;16.95;;;;;;;10.75;51.20;101806.41;5050025;28;20141;-63
2021/10/09 07:27:26;;;;;;;26.05;15.35;;;;;;;10.82;51.67;101800.44;5027370;28;20025;-63
2021/10/09 07:30:13;;;;;;;17.40;11.77;;;;;;;10.79;50.89;101796.06;5024832;28;20036;-63
2021/10/09 07:32:59;;;;;;;16.17;11.20;;;;;;;10.77;50.50;101799.50;5011644;28;20021;-62
2021/10/09 07:35:45;;;;;;;18.63;10.55;;;;;;;10.84;52.41;101801.31;5019622;28;20026;-63
2021/10/09 07:38:31;;;;;;;19.13;9.07;;;;;;;10.78;51.70;101786.56;5016383;28;20040;-62
2021/10/09 07:41:17;;;;;;;16.05;8.10;;;;;;;10.91;50.64;101791.88;5029030;28;20029;-62
2021/10/09 07:44:03;;;;;;;17.15;8.90;;;;;;;10.95;50.90;101784.16;5034444;28;20061;-65
2021/10/09 07:46:49;;;;;;;11.88;7.63;;;;;;;10.96;50.90;101779.81;5026677;28;20022;-62
2021/10/09 07:49:35;;;;;;;13.25;7.38;;;;;;;11.00;50.46;101790.28;5027177;28;20053;-63
2021/10/09 07:52:21;;;;;;;10.63;7.70;;;;;;;11.02;50.82;101787.69;5017303;28;20026;-63
2021/10/09 07:55:08;;;;;;;12.65;8.48;;;;;;;11.00;50.91;101776.41;5021075;28;20049;-62
2021/10/09 07:57:54;;;;;;;14.40;7.60;;;;;;;11.04;50.56;101770.41;5025890;28;20437;-62
2021/10/09 08:00:40;;;;;;;15.20;6.95;;;;;;;11.13;49.66;101777.41;5022901;28;20076;-62
2021/10/09 08:03:26;;;;;;;10.90;7.35;;;;;;;11.15;49.83;101781.78;5025654;28;20040;-62
2021/10/09 08:06:12;;;;;;;13.38;7.32;;;;;;;11.22;49.99;101786.16;5025423;28;20088;-61
2021/10/09 08:08:58;;;;;;;11.63;7.57;;;;;;;11.30;49.52;101783.66;5022903;28;20030;-66
2021/10/09 08:11:44;;;;;;;11.68;7.60;;;;;;;11.37;49.11;101774.19;5026902;28;20089;-65
2021/10/09 08:14:30;;;;;;;12.88;7.68;;;;;;;11.36;48.61;101770.75;5025141;28;20346;-66
2021/10/09 08:17:15;;;;;;;14.73;6.78;;;;;;;11.55;48.32;101782.13;5026243;28;20033;-66
2021/10/09 08:20:01;;;;;;;12.60;6.53;;;;;;;11.71;48.08;101777.06;5025545;28;20406;-68
2021/10/09 08:41:13;;;;;;;10.20;5.00;;;;;;;15.78;39.71;101773.41;5019059;28;20064;-68
2021/10/09 08:43:58;;;;;;;9.10;4.90;;;;;;;16.21;38.03;101770.38;5023260;28;20258;-63
2021/10/09 08:46:44;;;;;;;11.88;5.07;;;;;;;16.99;37.29;101772.94;5021995;28;20034;-63
2021/10/09 08:49:33;;;;;;;12.10;6.10;;;;;;;17.38;36.54;101765.34;5025413;28;20052;-65
2021/10/09 08:52:20;;;;;;;11.40;5.93;;;;;;;17.70;34.75;101732.50;5016963;28;20065;-64
2021/10/09 08:55:23;;;;;;;12.32;5.50;;;;;;;18.29;34.78;101769.00;5023997;28;20029;-65
2021/10/09 08:58:27;;;;;;;11.70;4.95;;;;;;;18.85;32.66;101762.56;5022407;28;20034;-64
2021/10/09 09:01:27;;;;;;;9.02;5.38;;;;;;;18.64;32.20;101714.06;5005731;28;20092;-65
2021/10/09 09:37:02;;;;;;;9.80;5.25;;;;;;;15.13;37.45;101745.22;5023343;28;20038;-60
2021/10/09 09:39:46;;;;;;;12.82;5.80;;;;;;;14.80;36.62;101744.56;5022737;28;20285;-60
2021/10/09 09:42:41;;;;;;;8.85;5.40;;;;;;;14.84;38.91;101748.03;5022363;28;20335;-62
2021/10/09 09:45:27;;;;;;;9.48;5.90;;;;;;;14.79;37.95;101737.63;5029822;28;20022;-59
2021/10/09 09:48:13;;;;;;;7.00;5.82;;;;;;;14.70;38.93;101728.97;5029018;28;20073;-63
2021/10/09 09:50:59;;;;;;;7.40;5.25;;;;;;;14.75;38.57;101735.91;5023973;28;20215;-60
2021/10/09 09:53:47;;;;;;;11.00;6.20;;;;;;;14.42;38.49;101690.84;5022913;28;20101;-59
2021/10/09 09:56:33;;;;;;;16.30;6.97;;;;;;;14.56;38.56;101729.88;5024539;28;20030;-59
2021/10/09 09:59:27;;;;;;;9.85;5.65;;;;;;;14.44;38.36;101736.00;5022887;28;20365;-60
2021/10/09 10:02:17;;;;;;;14.98;6.07;;;;;;;14.31;36.89;101737.81;5024079;28;20341;-59
2021/10/09 10:05:03;;;;;;;7.65;5.60;;;;;;;14.25;38.14;101727.41;5023878;28;20044;-59
2021/10/09 10:07:50;;;;;;;11.35;5.93;;;;;;;14.25;38.84;101723.91;5023572;28;20025;-59
2021/10/09 10:10:36;;;;;;;13.25;6.85;;;;;;;14.20;39.39;101731.75;5022871;28;20040;-60
2021/10/09 10:13:28;;;;;;;13.48;6.20;;;;;;;14.23;39.76;101730.88;5022685;28;20053;-60
2021/10/09 10:16:14;;;;;;;16.35;6.78;;;;;;;14.02;38.55;101713.56;5022539;28;20029;-61
2021/10/09 10:19:00;;;;;;;13.73;7.22;;;;;;;13.85;38.35;101703.19;5023255;28;20092;-60
2021/10/09 10:21:47;;;;;;;12.55;7.10;;;;;;;14.06;39.25;101717.91;5022097;28;20061;-61
2021/10/09 10:24:47;;;;;;;12.90;6.95;;;;;;;14.16;38.21;101717.00;5022455;28;20026;-61
2021/10/09 10:27:44;;;;;;;13.40;7.35;;;;;;;14.19;39.55;101713.53;5005869;28;20287;-61
2021/10/09 10:30:30;;;;;;;11.65;7.43;;;;;;;14.15;39.17;101717.84;5024377;28;20076;-60
2021/10/09 10:33:19;;;;;;;14.63;7.40;;;;;;;14.18;38.77;101717.00;5023774;28;20038;-60
2021/10/09 10:36:06;;;;;;;10.90;7.50;;;;;;;14.14;39.22;101714.41;5009142;28;20113;-59
2021/10/09 10:38:55;;;;;;;13.27;7.47;;;;;;;13.97;38.55;101714.44;5024023;28;20026;-60
2021/10/09 10:41:44;;;;;;;15.98;8.27;;;;;;;14.01;39.73;101719.66;5022380;28;20120;-60
2021/10/09 10:50:51;;;;;;;17.25;7.85;;;;;;;13.96;39.52;101706.63;5024556;28;20076;-60
2021/10/09 10:53:58;;;;;;;15.40;8.25;;;;;;;13.96;40.43;101702.28;5020701;28;20030;-60
2021/10/09 10:56:59;;;;;;;11.27;7.72;;;;;;;14.01;40.24;101698.81;5023401;28;20323;-61
2021/10/09 10:59:57;;;;;;;14.40;7.45;;;;;;;13.71;40.21;101651.13;5021069;28;20045;-60
2021/10/09 11:02:45;;;;;;;11.60;7.07;;;;;;;13.97;40.31;101685.78;5022616;28;20425;-60
2021/10/09 11:05:32;;;;;;;11.73;7.45;;;;;;;14.07;38.82;101691.00;5006699;28;20219;-60
2021/10/09 11:08:17;;;;;;;10.27;6.55;;;;;;;13.85;39.60;101692.78;5036562;28;20049;-61
2021/10/09 11:11:03;;;;;;;8.93;6.10;;;;;;;13.90;39.89;101686.69;5009155;28;20026;-61
2021/10/09 11:13:49;;;;;;;8.38;5.63;;;;;;;13.97;38.64;101683.19;5021134;28;20025;-61
2021/10/09 11:16:35;;;;;;;8.00;5.80;;;;;;;14.03;38.82;101682.31;5023596;28;20282;-62
2021/10/09 11:19:49;;;;;;;13.18;5.60;;;;;;;13.73;39.24;101628.56;5024751;28;20025;-60
2021/10/09 11:22:44;;;;;;;8.60;5.20;;;;;;;13.79;39.52;101632.00;5026366;28;20041;-60
2021/10/09 11:25:37;;;;;;;10.70;6.00;;;;;;;13.68;38.75;101612.97;5025617;28;20084;-61
2021/10/09 11:28:29;;;;;;;12.13;6.57;;;;;;;13.65;39.13;101607.75;5019694;28;20034;-60
2021/10/09 11:31:25;;;;;;;8.85;5.60;;;;;;;14.02;40.17;101664.94;5025777;28;20032;-60
2021/10/09 11:34:11;;;;;;;8.82;6.03;;;;;;;14.02;40.17;101648.44;5021751;28;20307;-61
2021/10/09 11:36:57;;;;;;;12.80;6.05;;;;;;;13.93;39.29;101651.94;5026168;28;20026;-60
2021/10/09 11:39:56;;;;;;;10.82;5.95;;;;;;;13.97;39.99;101641.50;5026690;28;20029;-60
2021/10/09 11:42:57;;;;;;;9.73;6.03;;;;;;;13.98;39.82;101653.66;5025131;28;20135;-59
2021/10/09 11:55:03;;;;;;;10.15;5.90;;;;;;;14.12;39.46;101634.50;5021976;28;20381;-60
2021/10/09 11:57:50;;;;;;;8.57;5.90;;;;;;;13.86;38.59;101572.09;5038381;28;20033;-60
2021/10/09 12:00:37;;;;;;;9.40;5.47;;;;;;;14.14;38.88;101633.63;5020895;28;20037;-60
2021/10/09 12:03:26;;;;;;;11.02;5.40;;;;;;;14.04;37.91;101624.13;5022242;28;20108;-60
2021/10/09 12:06:12;;;;;;;8.18;5.05;;;;;;;14.11;38.65;101618.00;5022165;28;20022;-60
2021/10/09 12:09:00;;;;;;;7.90;5.40;;;;;;;14.01;39.82;101608.50;5025344;28;20032;-61
2021/10/09 12:11:45;;;;;;;10.18;5.03;;;;;;;14.13;38.76;101616.25;5025229;28;20346;-61
2021/10/09 12:14:32;;;;;;;12.93;5.10;;;;;;;14.19;39.38;101614.50;5022506;28;20033;-60
2021/10/09 12:17:21;;;;;;;10.50;5.63;;;;;;;13.89;38.19;101566.88;5026005;28;20038;-61
2021/10/09 12:20:10;;;;;;;8.02;5.10;;;;;;;13.84;38.13;101559.09;5022442;28;20025;-60
2021/10/09 12:22:57;;;;;;;8.85;4.65;;;;;;;14.11;39.06;101602.38;5025142;28;20314;-59
2021/10/09 12:25:43;;;;;;;8.32;4.88;;;;;;;14.07;38.99;101595.44;5021857;28;20053;-60
2021/10/09 12:28:29;;;;;;;7.47;4.90;;;;;;;14.08;38.87;101593.69;5021388;28;20033;-60
2021/10/09 12:31:43;;;;;;;9.05;5.25;;;;;;;14.07;37.33;101591.97;5023052;28;20037;-60
2021/10/09 12:34:33;;;;;;;6.53;4.95;;;;;;;14.10;38.62;101591.97;5033765;28;20676;-60
2021/10/09 12:37:26;;;;;;;11.55;5.10;;;;;;;14.12;39.20;101587.59;5025260;28;20029;-60
2021/10/09 12:40:13;;;;;;;6.88;4.50;;;;;;;14.14;38.72;101588.47;5023543;28;20018;-60
2021/10/09 12:42:59;;;;;;;8.10;5.18;;;;;;;14.12;38.18;101580.66;5009720;28;20048;-60
2021/10/09 12:45:47;;;;;;;8.27;4.50;;;;;;;14.15;38.82;101587.56;5038862;28;20460;-60
2021/10/09 12:48:33;;;;;;;9.05;4.75;;;;;;;14.09;39.55;101579.78;5023194;28;20030;-61
2021/10/09 12:51:19;;;;;;;8.50;4.82;;;;;;;14.11;38.89;101570.25;5022832;28;20030;-61
2021/10/09 12:54:06;;;;;;;12.15;5.05;;;;;;;14.07;39.18;101563.31;5013178;28;20026;-60
2021/10/09 12:56:52;;;;;;;7.38;4.40;;;;;;;14.10;37.99;101573.72;5024277;28;20032;-60
2021/10/09 12:59:38;;;;;;;8.07;4.25;;;;;;;14.07;38.79;101564.19;5022519;28;20033;-60
2021/10/09 13:02:24;;;;;;;9.00;4.90;;;;;;;14.05;39.21;101565.06;5020387;28;20029;-60
2021/10/09 13:05:10;;;;;;;9.07;4.55;;;;;;;13.92;37.03;101559.03;5015347;28;20040;-59
2021/10/09 13:07:58;;;;;;;9.73;4.65;;;;;;;13.98;38.83;101559.88;5024040;28;20026;-62
2021/10/09 13:10:48;;;;;;;9.18;4.53;;;;;;;13.97;38.85;101565.09;5023085;28;20116;-62
2021/10/09 13:13:34;;;;;;;8.40;4.22;;;;;;;13.90;38.56;101547.78;5025159;28;20093;-63
2021/10/09 13:16:20;;;;;;;6.30;4.38;;;;;;;13.94;36.74;101559.91;5024483;28;20057;-62
2021/10/09 13:19:06;;;;;;;11.18;4.60;;;;;;;13.96;37.47;101559.00;5029821;28;20021;-62
2021/10/09 13:21:52;;;;;;;7.20;4.00;;;;;;;13.94;37.84;101549.50;5030914;28;20262;-62
2021/10/09 13:24:38;;;;;;;10.07;4.45;;;;;;;13.92;38.06;101546.91;5024741;28;20025;-62
2021/10/09 13:27:24;;;;;;;8.35;4.50;;;;;;;13.90;38.17;101553.00;5023271;28;20346;-63
2021/10/09 13:30:10;;;;;;;6.70;4.43;;;;;;;13.86;38.47;101544.31;5022017;28;20410;-60
2021/10/09 13:32:56;;;;;;;9.68;5.05;;;;;;;13.79;37.93;101540.84;5024850;28;20051;-61
2021/10/09 13:35:42;;;;;;;6.38;4.57;;;;;;;13.78;38.56;101541.75;5034248;28;20026;-62
2021/10/09 13:38:31;;;;;;;11.15;4.95;;;;;;;13.70;39.87;101535.72;5026512;28;20214;-61
2021/10/09 13:41:17;;;;;;;8.32;5.10;;;;;;;13.67;38.48;101540.03;5022923;28;20250;-61
2021/10/09 13:44:03;;;;;;;12.10;4.78;;;;;;;13.60;39.06;101540.09;5023159;28;20080;-60
2021/10/09 13:46:49;;;;;;;9.10;5.22;;;;;;;13.63;40.17;101534.84;5022394;28;20263;-61
2021/10/09 13:49:36;;;;;;;12.73;4.70;;;;;;;13.61;38.78;101544.44;5023231;28;20044;-61
2021/10/09 13:52:22;;;;;;;12.13;4.55;;;;;;;13.62;38.91;101538.34;5013849;28;20046;-63
2021/10/09 13:55:08;;;;;;;9.55;4.80;;;;;;;13.60;39.20;101532.28;5023526;28;20035;-61
2021/10/09 13:57:54;;;;;;;8.73;4.85;;;;;;;13.52;38.78;101523.63;5022240;28;20025;-62
2021/10/09 14:00:42;;;;;;;8.18;5.45;;;;;;;13.51;38.51;101526.22;5020605;28;20034;-60
2021/10/09 14:03:30;;;;;;;9.15;5.13;;;;;;;13.45;40.04;101521.91;5018856;28;20075;-63
2021/10/09 14:06:16;;;;;;;10.82;5.07;;;;;;;13.46;40.33;101519.31;5004643;28;20057;-62
2021/10/09 14:09:03;;;;;;;13.60;5.72;;;;;;;13.40;39.36;101519.34;5005790;28;20038;-61
2021/10/09 14:11:49;;;;;;;25.63;5.95;;;;;;;13.39;39.65;101514.13;5022459;28;20037;-61
2021/10/09 14:14:35;;;;;;;14.35;5.45;;;;;;;13.28;39.85;101519.31;5005945;28;20034;-61
2021/10/09 14:17:21;;;;;;;10.73;4.95;;;;;;;13.29;40.17;101515.88;5023548;28;20091;-62
2021/10/09 14:20:08;;;;;;;9.13;5.15;;;;;;;13.26;39.32;101516.72;5021634;28;20032;-61
2021/10/09 14:22:54;;;;;;;16.75;5.30;;;;;;;13.21;40.15;101520.22;5037824;28;20222;-62
2021/10/09 14:25:40;;;;;;;15.77;6.18;;;;;;;13.08;40.09;101521.97;5035792;28;20210;-61
2021/10/09 14:28:26;;;;;;;13.85;5.95;;;;;;;13.09;41.00;101523.72;5023180;28;20022;-62
2021/10/09 14:31:12;;;;;;;16.52;6.97;;;;;;;13.06;41.01;101519.38;5023239;28;20080;-62
2021/10/09 14:33:58;;;;;;;19.42;6.63;;;;;;;12.93;40.78;101508.13;5024315;28;20085;-62
2021/10/09 14:36:44;;;;;;;20.25;6.25;;;;;;;12.98;41.08;101515.06;5022072;28;20049;-61
2021/10/09 14:39:29;;;;;;;18.88;7.05;;;;;;;12.91;41.35;101514.22;5022955;28;20230;-60
2021/10/09 14:42:16;;;;;;;19.38;8.05;;;;;;;12.81;42.06;101507.28;5022657;28;20053;-60
2021/10/09 14:45:03;;;;;;;17.20;7.05;;;;;;;12.82;42.61;101511.63;5020996;28;20037;-60
2021/10/09 14:48:00;;;;;;;14.18;6.82;;;;;;;12.74;42.61;101509.03;5022918;28;20085;-59
2021/10/09 15:20:31;;;;;;;13.35;6.53;;;;;;;11.65;47.22;101505.38;5025973;28;20030;-61
2021/10/09 15:23:16;;;;;;;18.85;6.93;;;;;;;11.55;47.57;101496.69;5020263;28;20038;-61
2021/10/09 15:26:02;;;;;;;15.65;7.13;;;;;;;11.56;47.63;101514.00;5025529;28;20030;-61
2021/10/09 15:28:48;;;;;;;15.90;6.68;;;;;;;11.49;47.82;101509.66;5027278;28;20037;-61
2021/10/09 15:31:34;;;;;;;17.02;8.20;;;;;;;11.42;48.28;101507.03;5026116;28;20060;-61
2021/10/09 15:34:20;;;;;;;22.85;8.02;;;;;;;11.36;48.73;101510.47;5025252;28;20102;-61
2021/10/09 15:37:07;;;;;;;18.27;7.78;;;;;;;11.29;49.23;101516.47;5015280;28;20060;-60
2021/10/09 15:39:53;;;;;;;19.38;8.23;;;;;;;11.21;49.49;101509.50;5026638;28;20022;-61
2021/10/09 15:42:39;;;;;;;18.52;7.22;;;;;;;11.12;50.36;101512.06;5026129;28;20077;-61
2021/10/09 15:45:26;;;;;;;13.85;7.30;;;;;;;11.08;50.27;101515.47;5026707;28;20338;-61